• Join FlightAware (Why Join?)
  • Login
  • US Flag 
08:01PM EDT


 

Airport Tracker/Info


-or-


 

Live Flight TrackerFlight Track Log ✈ VRT51 ✈ 14-Aug-2013 ✈ KBNA - KBHM

Flight Track Log - Related Links

Times and Time Zones

All times are in EDT time to prevent confusion due to time zone crossing. See the VRT51 flight status page for this flight to view local times or setup timezone preferences in your user account.

Time Position Orientation Groundspeed Altitude Reporting Facility
EDT Latitude Longitude Course Direction KTS MPH feet Rate Location/Type
06:58AM 36.1333 -86.6667 39° Northeast 178 205 1,400  Level Nashville TRACON
06:59AM 36.1667 -86.6333 39° Northeast 197 227 5,000 2,760 Climbing Nashville TRACON
07:00AM 36.1667 -86.5500 90° East 267 307 7,300 2,460 Climbing Nashville TRACON
07:01AM 36.0772 -86.5561 183° South 325 374 10,500 3,060 Climbing Memphis Center
07:02AM 35.9931 -86.5986 202° Southwest 330 380 14,100 3,480 Climbing Memphis Center
07:03AM 35.9008 -86.6439 202° Southwest 346 398 17,500 1,920 Climbing Memphis Center
07:04AM 35.8000 -86.6944 202° Southwest 377 434 18,000 240 Climbing Memphis Center
07:05AM 35.6908 -86.7428 200° South 408 470 18,000  Level Memphis Center
07:06AM 35.5750 -86.7708 191° South 421 484 18,000  Level Memphis Center
07:07AM 35.4564 -86.7836 185° South 431 496 18,000  Level Memphis Center
07:08AM 35.3503 -86.7931 184° South 431 496 18,000  Level Memphis Center
07:09AM 35.2275 -86.8008 183° South 437 503 18,000  Level Memphis Center
07:10AM 35.1086 -86.8061 182° South 437 503 18,000  Level Memphis Center
07:11AM 34.9922 -86.8133 183° South 437 503 18,000  Level Memphis Center
07:12AM 34.8714 -86.8211 183° South 437 503 18,000  Level Memphis Center
07:13AM 34.7506 -86.8286 183° South 437 503 18,000  Level Memphis Center
07:14AM 34.6297 -86.8389 184° South 437 503 18,000  Level Memphis Center
07:15AM 34.5053 -86.8442 182° South 442 509 18,000 -1,140 Level Atlanta Center
07:16AM 34.3944 -86.8531 184° South 442 509 15,800 -2,280 Descending Atlanta Center
07:17AM 34.2797 -86.8569 182° South 424 488 13,500 -2,340 Descending Atlanta Center
07:18AM 34.1708 -86.8658 184° South 406 467 11,200 -1,260 Descending Atlanta Center
07:19AM 34.0664 -86.8725 183° South 389 448 11,000 -360 Descending Atlanta Center
07:20AM 33.9658 -86.8867 187° South 379 436 10,500 -900 Descending Atlanta Center
07:21AM 33.8839 -86.9064 191° South 344 396 9,200 -1,620 Descending Atlanta Center
07:22AM 33.8064 -86.9264 192° South 305 351 7,300 -1,980 Descending Atlanta Center
07:23AM 33.7308 -86.9439 191° South 287 330 5,300 -2,040 Descending Atlanta Center
07:24AM 33.6553 -86.9636 192° South 281 323 3,300 -1,200 Descending Atlanta Center
07:25AM 33.5822 -86.9636 180° South 276 318 3,000 -180 Descending Atlanta Center
07:26AM 33.5072 -86.9561 175° South 276 318 3,000 -240 Level Atlanta Center
07:27AM 33.4689 -86.8975 128° Southeast 211 243 2,600 -360 Descending Atlanta Center
07:29AM 33.5097 -86.8517 43° Northeast 104 120 2,200 -480 Descending Atlanta Center
07:30AM 33.5269 -86.8197 57° Northeast 109 125 1,600 -600 Descending Atlanta Center
07:31AM 33.5467 -86.7856 55° Northeast 124 143 1,000 -600 Descending Atlanta Center